createdAt,value
2023-07-03T00:01:36.230Z,16.40
2023-07-03T00:04:05.682Z,16.40
2023-07-03T00:06:33.039Z,16.30
2023-07-03T00:09:02.048Z,16.30
2023-07-03T00:11:33.972Z,16.20
2023-07-03T00:14:00.992Z,16.10
2023-07-03T00:16:31.182Z,16.10
2023-07-03T00:19:00.925Z,16.20
2023-07-03T00:21:28.025Z,16.20
2023-07-03T00:23:59.927Z,16.20
2023-07-03T00:26:29.724Z,16.20
2023-07-03T00:28:56.638Z,16.20
2023-07-03T00:31:23.574Z,16.20
2023-07-03T00:33:52.148Z,16.20
2023-07-03T00:36:20.454Z,16.20
2023-07-03T00:38:51.413Z,16.20
2023-07-03T00:41:19.653Z,16.10
2023-07-03T00:43:49.453Z,16.00
2023-07-03T00:46:16.791Z,16.10
2023-07-03T00:48:47.496Z,16.00
2023-07-03T00:51:16.908Z,15.90
2023-07-03T00:53:45.275Z,15.90
2023-07-03T00:56:15.243Z,16.00
2023-07-03T00:58:44.459Z,15.90
2023-07-03T01:01:17.249Z,15.90
2023-07-03T01:03:53.736Z,15.90
2023-07-03T01:06:25.299Z,15.80
2023-07-03T01:08:59.515Z,15.90
2023-07-03T01:11:29.752Z,15.90
2023-07-03T01:14:00.244Z,15.90
2023-07-03T01:16:32.644Z,15.70
2023-07-03T01:19:02.503Z,15.70
2023-07-03T01:21:48.402Z,15.70
2023-07-03T01:24:30.650Z,15.70
2023-07-03T01:27:02.731Z,15.70
2023-07-03T01:29:32.401Z,15.70
2023-07-03T01:31:59.732Z,15.70
2023-07-03T01:34:29.874Z,15.70
2023-07-03T01:37:02.027Z,15.60
2023-07-03T01:39:32.675Z,15.60
2023-07-03T01:42:01.585Z,15.70
2023-07-03T01:44:29.429Z,15.60
2023-07-03T01:47:11.135Z,15.60
2023-07-03T01:49:42.223Z,15.60
2023-07-03T01:52:29.917Z,15.50
2023-07-03T01:55:06.108Z,15.60
2023-07-03T01:58:00.019Z,15.60
2023-07-03T02:00:59.080Z,15.60
2023-07-03T02:03:34.553Z,15.60
2023-07-03T02:06:25.307Z,15.60
2023-07-03T02:08:54.189Z,15.70
2023-07-03T02:11:28.759Z,15.70
2023-07-03T02:14:04.015Z,15.70
2023-07-03T02:16:33.533Z,15.60
2023-07-03T02:19:02.446Z,15.60
2023-07-03T02:21:30.769Z,15.60
2023-07-03T02:23:58.968Z,15.60
2023-07-03T02:26:25.882Z,15.50
2023-07-03T02:28:55.918Z,15.60
2023-07-03T02:31:22.943Z,15.50
2023-07-03T02:33:55.245Z,15.50
2023-07-03T02:36:28.661Z,15.30
2023-07-03T02:38:55.620Z,15.30
2023-07-03T02:41:28.412Z,15.30
2023-07-03T02:43:56.899Z,15.40
2023-07-03T02:46:26.549Z,15.50
2023-07-03T02:48:55.261Z,15.30
2023-07-03T02:54:07.265Z,15.50
2023-07-03T02:56:34.347Z,15.50
2023-07-03T02:59:01.828Z,15.40
2023-07-03T03:01:32.826Z,15.40
2023-07-03T03:04:00.920Z,15.50
2023-07-03T03:06:28.072Z,15.50
2023-07-03T03:08:55.738Z,15.50
2023-07-03T03:11:22.935Z,15.40
2023-07-03T03:13:56.573Z,15.20
2023-07-03T03:16:24.766Z,15.20
2023-07-03T03:18:51.740Z,15.30
2023-07-03T03:21:21.206Z,15.40
2023-07-03T03:23:49.518Z,15.40
2023-07-03T03:26:16.843Z,15.40
2023-07-03T03:28:43.810Z,15.40
2023-07-03T03:31:12.663Z,15.50
2023-07-03T03:33:48.314Z,15.50
2023-07-03T03:36:15.372Z,15.60
2023-07-03T03:38:43.826Z,15.60
2023-07-03T03:41:11.029Z,15.50
2023-07-03T03:43:40.609Z,15.50
2023-07-03T03:46:11.064Z,15.60
2023-07-03T03:48:38.844Z,15.50
2023-07-03T03:51:09.312Z,15.40
2023-07-03T03:53:41.858Z,15.40
2023-07-03T03:56:09.385Z,15.40
2023-07-03T03:58:39.234Z,15.40
2023-07-03T04:01:06.091Z,15.30
2023-07-03T04:03:33.851Z,15.30
2023-07-03T04:06:01.939Z,15.30
2023-07-03T04:08:28.820Z,15.40
2023-07-03T04:10:59.665Z,15.40
2023-07-03T04:13:28.285Z,15.40
2023-07-03T04:16:00.974Z,15.40
2023-07-03T04:18:33.036Z,15.60
2023-07-03T04:21:00.653Z,15.60
2023-07-03T04:23:27.968Z,15.60
2023-07-03T04:25:55.242Z,15.60
2023-07-03T04:28:23.410Z,15.70
2023-07-03T04:30:50.710Z,15.80
2023-07-03T04:33:17.732Z,15.80
2023-07-03T04:35:49.431Z,15.90
2023-07-03T04:38:26.555Z,15.90
2023-07-03T04:40:56.001Z,16.00
2023-07-03T04:43:24.096Z,16.10
2023-07-03T04:45:53.455Z,16.20
2023-07-03T04:48:21.995Z,16.30
2023-07-03T04:50:51.037Z,16.40
2023-07-03T04:53:22.083Z,16.40
2023-07-03T04:55:52.794Z,16.50
2023-07-03T04:58:20.597Z,16.60
2023-07-03T05:00:48.267Z,16.70
2023-07-03T05:03:15.959Z,16.80
2023-07-03T05:05:44.438Z,16.80
2023-07-03T05:08:12.686Z,16.90
2023-07-03T05:10:41.036Z,17.00
2023-07-03T05:13:08.438Z,17.20
2023-07-03T05:15:36.499Z,17.30
2023-07-03T05:18:03.582Z,17.40
2023-07-03T05:20:33.238Z,17.40
2023-07-03T05:23:00.216Z,17.50
2023-07-03T05:25:28.499Z,17.60
2023-07-03T05:27:59.084Z,17.70
2023-07-03T05:30:25.996Z,17.80
2023-07-03T05:32:53.410Z,17.90
2023-07-03T05:35:20.383Z,18.00
2023-07-03T05:37:48.339Z,18.10
2023-07-03T05:40:16.451Z,18.20
2023-07-03T05:42:44.286Z,18.30
2023-07-03T05:45:12.811Z,18.40
2023-07-03T05:47:39.823Z,18.50
2023-07-03T05:50:16.173Z,18.60
2023-07-03T05:52:46.651Z,18.80
2023-07-03T05:55:13.885Z,18.90
2023-07-03T05:57:41.581Z,19.10
2023-07-03T06:00:16.279Z,19.20
2023-07-03T06:02:54.373Z,19.30
2023-07-03T06:05:23.147Z,19.40
2023-07-03T06:07:50.302Z,19.60
2023-07-03T06:10:20.985Z,19.70
2023-07-03T06:12:52.873Z,19.80
2023-07-03T06:15:20.125Z,20.00
2023-07-03T06:17:50.173Z,20.00
2023-07-03T06:20:17.648Z,20.10
2023-07-03T06:22:46.151Z,20.20
2023-07-03T06:25:13.380Z,20.30
2023-07-03T06:27:40.552Z,20.30
2023-07-03T06:30:08.741Z,20.40
2023-07-03T06:32:37.604Z,20.40
2023-07-03T06:35:06.818Z,20.50
2023-07-03T06:37:35.442Z,20.60
2023-07-03T06:40:13.117Z,20.70
2023-07-03T06:42:43.312Z,20.90
2023-07-03T06:45:19.562Z,21.00
2023-07-03T06:47:46.889Z,21.00
2023-07-03T06:50:13.751Z,21.20
2023-07-03T06:52:43.734Z,21.30
2023-07-03T06:55:15.565Z,21.30
2023-07-03T06:57:43.576Z,21.40
2023-07-03T07:00:11.067Z,21.50
2023-07-03T07:02:38.119Z,21.50
2023-07-03T07:05:05.469Z,21.60
2023-07-03T07:07:33.355Z,21.80
2023-07-03T07:10:04.102Z,21.90
2023-07-03T07:12:32.473Z,22.00
2023-07-03T07:14:59.395Z,22.10
2023-07-03T07:17:46.332Z,22.00
2023-07-03T07:20:25.538Z,22.00
2023-07-03T07:22:54.488Z,22.10
2023-07-03T07:25:21.463Z,22.10
2023-07-03T07:27:51.416Z,22.00
2023-07-03T07:30:19.483Z,22.20
2023-07-03T07:32:49.923Z,22.30
2023-07-03T07:35:20.431Z,22.50
2023-07-03T07:37:47.836Z,22.50
2023-07-03T07:40:14.740Z,22.50
2023-07-03T07:42:48.319Z,22.50
2023-07-03T07:45:18.283Z,22.50
2023-07-03T07:47:48.004Z,22.60
2023-07-03T07:50:17.905Z,22.80
2023-07-03T07:52:45.046Z,22.90
2023-07-03T07:55:13.275Z,23.00
2023-07-03T07:57:43.116Z,22.90
2023-07-03T08:00:15.009Z,22.90
2023-07-03T08:02:44.203Z,23.10
2023-07-03T08:05:15.853Z,23.20
2023-07-03T08:07:50.248Z,23.20
2023-07-03T08:10:20.273Z,23.40
2023-07-03T08:12:48.669Z,23.50
2023-07-03T08:15:15.642Z,23.40
2023-07-03T08:17:42.681Z,23.50
2023-07-03T08:20:13.194Z,23.60
2023-07-03T08:22:42.509Z,23.70
2023-07-03T08:25:15.300Z,24.00
2023-07-03T08:27:47.977Z,23.90
2023-07-03T08:30:17.312Z,23.90
2023-07-03T08:38:11.526Z,23.60
2023-07-03T08:40:40.911Z,23.60
2023-07-03T08:43:18.133Z,23.50
2023-07-03T08:45:50.557Z,23.50
2023-07-03T08:48:24.477Z,23.50
2023-07-03T08:50:58.520Z,23.40
2023-07-03T08:53:34.236Z,23.40
2023-07-03T08:56:09.576Z,23.50
2023-07-03T08:58:40.701Z,23.60
2023-07-03T09:01:10.098Z,23.70
2023-07-03T09:04:03.444Z,23.80
2023-07-03T09:06:54.809Z,23.80
2023-07-03T09:09:39.303Z,24.00
2023-07-03T09:12:31.094Z,24.00
2023-07-03T09:15:10.549Z,24.20
2023-07-03T09:17:40.786Z,24.20
2023-07-03T09:20:15.806Z,24.30
2023-07-03T09:22:55.824Z,24.50
2023-07-03T09:25:45.631Z,24.50
2023-07-03T09:28:21.304Z,24.70
2023-07-03T09:30:51.045Z,24.70
2023-07-03T09:33:18.711Z,24.90
2023-07-03T09:35:49.168Z,25.20
2023-07-03T09:38:22.898Z,25.30
2023-07-03T09:40:59.743Z,25.20
2023-07-03T09:43:29.313Z,25.00
2023-07-03T09:46:11.197Z,24.80
2023-07-03T09:48:39.834Z,24.70
2023-07-03T09:51:20.732Z,24.70
2023-07-03T09:53:55.282Z,24.90
2023-07-03T09:56:29.081Z,25.10
2023-07-03T09:59:05.162Z,25.20
2023-07-03T10:07:11.492Z,25.50
2023-07-03T10:12:33.463Z,25.50
2023-07-03T10:15:24.342Z,25.70
2023-07-03T10:18:01.861Z,26.00
2023-07-03T10:20:36.160Z,26.10
2023-07-03T10:23:08.541Z,26.00
2023-07-03T10:25:49.073Z,25.90
2023-07-03T10:28:26.433Z,25.80
2023-07-03T10:31:00.028Z,25.60
2023-07-03T10:33:37.449Z,25.70
2023-07-03T10:36:11.369Z,25.80
2023-07-03T10:38:47.772Z,25.90
2023-07-03T10:41:24.569Z,25.90
2023-07-03T10:43:59.785Z,25.90
2023-07-03T10:46:42.283Z,25.90
2023-07-03T10:49:18.328Z,25.90
2023-07-03T10:52:11.277Z,25.90
2023-07-03T10:55:14.433Z,26.00
2023-07-03T10:58:03.086Z,26.00
2023-07-03T11:01:01.998Z,26.00
2023-07-03T11:04:22.339Z,25.90
2023-07-03T11:07:05.238Z,25.80
2023-07-03T11:09:42.676Z,25.80
2023-07-03T11:12:48.605Z,25.80
2023-07-03T11:15:30.465Z,25.70
2023-07-03T11:24:42.649Z,26.00
2023-07-03T11:30:12.705Z,26.20
2023-07-03T11:32:40.420Z,26.20
2023-07-03T11:40:40.341Z,26.00
2023-07-03T11:43:35.900Z,26.00
2023-07-03T11:46:09.281Z,26.10
2023-07-03T11:48:39.003Z,26.00
2023-07-03T11:51:12.416Z,25.90
2023-07-03T11:53:54.889Z,25.90
2023-07-03T11:56:37.718Z,26.00
2023-07-03T11:59:24.696Z,26.30
2023-07-03T12:02:20.316Z,26.40
2023-07-03T12:05:10.904Z,26.60
2023-07-03T12:07:43.964Z,26.80
2023-07-03T12:10:24.638Z,26.90
2023-07-03T12:13:28.679Z,26.90
2023-07-03T12:16:03.865Z,26.80
2023-07-03T12:18:34.091Z,26.80
2023-07-03T12:21:05.080Z,26.80
2023-07-03T12:23:43.051Z,26.90
2023-07-03T12:26:14.853Z,26.90
2023-07-03T12:28:45.800Z,27.00
2023-07-03T12:31:21.742Z,26.90
2023-07-03T12:33:53.106Z,26.40
2023-07-03T12:36:35.946Z,26.10
2023-07-03T12:39:14.454Z,26.00
2023-07-03T12:41:42.515Z,26.00
2023-07-03T12:44:12.051Z,26.00
2023-07-03T12:47:23.342Z,25.90
2023-07-03T12:50:01.799Z,25.90
2023-07-03T12:52:37.956Z,26.00
2023-07-03T12:55:14.617Z,26.00
2023-07-03T12:57:43.105Z,26.00
2023-07-03T13:00:21.124Z,26.00
2023-07-03T13:02:48.190Z,26.10
2023-07-03T13:05:22.508Z,26.00
2023-07-03T13:07:52.401Z,26.00
2023-07-03T13:10:20.739Z,26.00
2023-07-03T13:13:08.932Z,26.00
2023-07-03T13:15:43.652Z,26.00
2023-07-03T13:18:15.496Z,25.90
2023-07-03T13:20:53.956Z,26.00
2023-07-03T13:23:46.654Z,26.00
2023-07-03T13:26:27.146Z,26.00
2023-07-03T13:28:59.647Z,26.00
2023-07-03T13:31:50.848Z,26.10
2023-07-03T13:34:22.126Z,26.10
2023-07-03T13:37:06.824Z,26.10
2023-07-03T13:39:36.843Z,26.00
2023-07-03T13:42:12.261Z,26.00
2023-07-03T13:44:40.218Z,25.90
2023-07-03T13:47:07.601Z,25.90
2023-07-03T13:49:34.789Z,25.80
2023-07-03T13:52:02.208Z,25.80
2023-07-03T13:54:31.782Z,25.80
2023-07-03T13:57:01.401Z,25.70
2023-07-03T13:59:31.353Z,25.80
2023-07-03T14:01:59.010Z,25.70
2023-07-03T14:04:28.527Z,25.70
2023-07-03T14:06:55.678Z,25.70
2023-07-03T14:09:25.890Z,25.70
2023-07-03T14:11:56.926Z,25.60
2023-07-03T14:14:35.717Z,25.60
2023-07-03T14:17:08.126Z,25.70
2023-07-03T14:19:35.280Z,25.70
2023-07-03T14:22:03.636Z,25.70
2023-07-03T14:24:31.909Z,25.80
2023-07-03T14:27:01.361Z,25.80
2023-07-03T14:29:31.594Z,25.80
2023-07-03T14:32:02.050Z,25.80
2023-07-03T14:34:29.325Z,25.80
2023-07-03T14:36:57.278Z,25.70
2023-07-03T14:39:25.312Z,25.70
2023-07-03T14:41:54.435Z,25.70
2023-07-03T14:44:24.137Z,25.70
2023-07-03T14:46:51.360Z,25.60
2023-07-03T14:49:19.542Z,25.50
2023-07-03T14:51:46.625Z,25.50
2023-07-03T14:54:17.227Z,25.40
2023-07-03T14:56:49.294Z,25.40
2023-07-03T14:59:18.194Z,25.50
2023-07-03T15:01:45.662Z,25.60
2023-07-03T15:04:13.366Z,25.60
2023-07-03T15:06:43.384Z,25.60
2023-07-03T15:09:12.096Z,25.50
2023-07-03T15:11:38.982Z,25.50
2023-07-03T15:14:12.345Z,25.50
2023-07-03T15:16:43.424Z,25.70
2023-07-03T15:19:15.667Z,25.70
2023-07-03T15:21:43.642Z,25.70
2023-07-03T15:24:11.701Z,25.70
2023-07-03T15:26:41.864Z,25.60
2023-07-03T15:29:11.127Z,25.70
2023-07-03T15:31:44.262Z,25.90
2023-07-03T15:34:14.105Z,26.00
2023-07-03T15:36:41.464Z,25.90
2023-07-03T15:39:08.849Z,25.80
2023-07-03T15:41:39.101Z,25.60
2023-07-03T15:44:06.101Z,25.40
2023-07-03T15:46:35.476Z,25.30
2023-07-03T15:49:02.475Z,25.40
2023-07-03T15:51:33.035Z,25.30
2023-07-03T15:54:02.326Z,25.40
2023-07-03T15:56:31.876Z,25.30
2023-07-03T15:59:04.134Z,25.20
2023-07-03T16:01:34.334Z,25.20
2023-07-03T16:04:05.104Z,25.00
2023-07-03T16:06:37.640Z,25.10
2023-07-03T16:09:07.746Z,25.00
2023-07-03T16:11:38.360Z,25.10
2023-07-03T16:14:05.773Z,25.10
2023-07-03T16:16:32.812Z,25.10
2023-07-03T16:19:02.244Z,25.10
2023-07-03T16:21:32.522Z,25.10
2023-07-03T16:24:01.889Z,25.00
2023-07-03T16:26:32.489Z,25.00
2023-07-03T16:28:59.672Z,25.00
2023-07-03T16:31:29.035Z,25.00
2023-07-03T16:34:01.109Z,25.00
2023-07-03T16:36:30.652Z,24.90
2023-07-03T16:39:07.095Z,25.00
2023-07-03T16:41:41.628Z,25.00
2023-07-03T16:44:11.233Z,25.10
2023-07-03T16:46:45.423Z,25.10
2023-07-03T16:49:20.501Z,24.90
2023-07-03T16:51:48.592Z,24.80
2023-07-03T16:54:15.853Z,24.80
2023-07-03T16:56:44.582Z,24.70
2023-07-03T16:59:18.201Z,24.60
2023-07-03T17:01:49.847Z,24.60
2023-07-03T17:04:17.813Z,24.50
2023-07-03T17:06:45.726Z,24.50
2023-07-03T17:09:17.078Z,24.40
2023-07-03T17:11:46.978Z,24.30
2023-07-03T17:14:27.697Z,24.30
2023-07-03T17:16:56.767Z,24.30
2023-07-03T17:19:29.193Z,24.20
2023-07-03T17:22:03.121Z,24.20
2023-07-03T17:24:33.045Z,24.20
2023-07-03T17:27:01.347Z,24.10
2023-07-03T17:29:30.884Z,24.10
2023-07-03T17:32:00.690Z,24.00
2023-07-03T17:34:32.206Z,24.00
2023-07-03T17:37:04.826Z,24.00
2023-07-03T17:39:34.845Z,23.90
2023-07-03T17:42:03.640Z,23.80
2023-07-03T17:44:36.363Z,23.80
2023-07-03T17:47:09.522Z,23.70
2023-07-03T17:49:39.575Z,23.60
2023-07-03T17:52:08.704Z,23.60
2023-07-03T17:54:37.476Z,23.60
2023-07-03T17:57:09.021Z,23.50
2023-07-03T17:59:40.461Z,23.40
2023-07-03T18:02:16.664Z,23.40
2023-07-03T18:04:45.277Z,23.30
2023-07-03T18:07:17.847Z,23.20
2023-07-03T18:09:46.849Z,23.20
2023-07-03T18:12:28.027Z,23.10
2023-07-03T18:14:58.273Z,23.10
2023-07-03T18:17:27.944Z,23.00
2023-07-03T18:19:57.845Z,22.90
2023-07-03T18:22:29.065Z,22.90
2023-07-03T18:25:02.255Z,22.80
2023-07-03T18:27:37.490Z,22.70
2023-07-03T18:30:13.764Z,22.70
2023-07-03T18:32:45.492Z,22.70
2023-07-03T18:35:19.769Z,22.60
2023-07-03T18:37:50.472Z,22.50
2023-07-03T18:40:28.881Z,22.50
2023-07-03T18:42:59.052Z,22.40
2023-07-03T18:45:30.473Z,22.30
2023-07-03T18:48:04.543Z,22.20
2023-07-03T18:50:41.069Z,22.10
2023-07-03T18:53:12.270Z,22.00
2023-07-03T18:55:56.765Z,22.00
2023-07-03T18:58:26.853Z,21.90
2023-07-03T19:00:58.459Z,21.70
2023-07-03T19:03:38.691Z,21.60
2023-07-03T19:06:13.175Z,21.50
2023-07-03T19:08:50.044Z,21.50
2023-07-03T19:11:28.187Z,21.30
2023-07-03T19:14:01.808Z,21.30
2023-07-03T19:16:34.795Z,21.20
2023-07-03T19:19:13.304Z,21.20
2023-07-03T19:21:47.535Z,21.20
2023-07-03T19:24:19.073Z,21.20
2023-07-03T19:26:49.206Z,21.10
2023-07-03T19:29:19.014Z,21.00
2023-07-03T19:32:04.611Z,21.00
2023-07-03T19:34:41.554Z,20.80
2023-07-03T19:37:18.323Z,20.70
2023-07-03T19:39:50.226Z,20.70
2023-07-03T19:42:22.728Z,20.70
2023-07-03T19:44:52.954Z,20.60
2023-07-03T19:47:24.597Z,20.60
2023-07-03T19:50:03.341Z,20.40
2023-07-03T19:52:42.483Z,20.40
2023-07-03T19:55:14.810Z,20.40
2023-07-03T19:57:47.129Z,20.30
2023-07-03T20:00:16.199Z,20.20
2023-07-03T20:02:50.232Z,20.20
2023-07-03T20:05:22.466Z,20.10
2023-07-03T20:07:53.571Z,20.10
2023-07-03T20:10:24.274Z,20.10
2023-07-03T20:12:55.715Z,20.00
2023-07-03T20:15:25.556Z,20.00
2023-07-03T20:17:55.924Z,19.90
2023-07-03T20:20:24.975Z,19.80
2023-07-03T20:22:56.057Z,19.90
2023-07-03T20:25:25.075Z,19.80
2023-07-03T20:27:59.419Z,19.70
2023-07-03T20:30:32.335Z,19.60
2023-07-03T20:33:05.424Z,19.60
2023-07-03T20:35:38.126Z,19.40
2023-07-03T20:38:12.424Z,19.40
2023-07-03T20:40:55.730Z,19.30
2023-07-03T20:43:29.008Z,19.20
2023-07-03T20:46:12.516Z,19.20
2023-07-03T20:48:46.218Z,19.30
2023-07-03T20:51:22.569Z,19.30
2023-07-03T20:53:52.559Z,19.10
2023-07-03T20:56:28.216Z,19.00
2023-07-03T20:59:01.807Z,19.00
2023-07-03T21:01:34.258Z,18.90
2023-07-03T21:04:05.486Z,18.90
2023-07-03T21:06:36.076Z,18.90
2023-07-03T21:09:05.943Z,18.80
2023-07-03T21:11:40.509Z,18.70
2023-07-03T21:14:08.420Z,18.60
2023-07-03T21:16:37.342Z,18.70
2023-07-03T21:19:11.086Z,18.60
2023-07-03T21:21:38.974Z,18.70
2023-07-03T21:24:09.709Z,18.70
2023-07-03T21:26:37.348Z,18.70
2023-07-03T21:29:05.703Z,18.70
2023-07-03T21:31:38.360Z,18.60
2023-07-03T21:34:05.851Z,18.50
2023-07-03T21:36:33.799Z,18.50
2023-07-03T21:39:06.519Z,18.30
2023-07-03T21:41:36.307Z,18.30
2023-07-03T21:44:17.582Z,18.30
2023-07-03T21:46:45.069Z,18.30
2023-07-03T21:49:14.848Z,18.30
2023-07-03T21:51:43.194Z,18.30
2023-07-03T21:54:10.879Z,18.20
2023-07-03T21:56:39.607Z,18.20
2023-07-03T21:59:06.754Z,18.20
2023-07-03T22:01:40.728Z,18.30
2023-07-03T22:04:11.784Z,18.30
2023-07-03T22:06:43.601Z,18.40
2023-07-03T22:09:12.425Z,18.30
2023-07-03T22:11:42.894Z,18.10
2023-07-03T22:14:10.024Z,18.10
2023-07-03T22:16:38.238Z,18.10
2023-07-03T22:19:06.768Z,18.10
2023-07-03T22:21:33.677Z,18.10
2023-07-03T22:24:03.912Z,18.10
2023-07-03T22:26:31.216Z,18.00
2023-07-03T22:29:01.768Z,18.10
2023-07-03T22:31:28.746Z,18.00
2023-07-03T22:33:55.807Z,18.00
2023-07-03T22:36:22.716Z,18.00
2023-07-03T22:38:53.228Z,18.00
2023-07-03T22:41:23.403Z,17.90
2023-07-03T22:43:50.428Z,17.80
2023-07-03T22:46:17.406Z,17.90
2023-07-03T22:48:49.024Z,17.90
2023-07-03T22:51:19.296Z,17.90
2023-07-03T22:53:51.033Z,17.90
2023-07-03T22:56:19.348Z,17.90
2023-07-03T22:58:46.305Z,17.90
2023-07-03T23:01:13.774Z,18.00
2023-07-03T23:03:44.691Z,17.90
2023-07-03T23:06:15.655Z,17.80
2023-07-03T23:08:45.714Z,17.80
2023-07-03T23:11:13.561Z,17.90
2023-07-03T23:13:40.917Z,17.80
2023-07-03T23:16:12.179Z,17.80
2023-07-03T23:18:42.033Z,17.70
2023-07-03T23:21:18.961Z,17.70
2023-07-03T23:23:45.873Z,17.60
2023-07-03T23:26:18.449Z,17.70
2023-07-03T23:28:46.651Z,17.70
2023-07-03T23:31:18.479Z,17.70
2023-07-03T23:33:51.817Z,17.70
2023-07-03T23:36:21.417Z,17.70
2023-07-03T23:38:51.651Z,17.60
2023-07-03T23:41:21.559Z,17.60
2023-07-03T23:43:51.331Z,17.60
